Airfield :
LOGIN :

Register | Disclaimer

   EN    FR    IT 

 










Legend :    VFR   Marginal VFR   IFR   Intensive IFR   Very Intensive IFR
Visi :
Ceiling :
>= 8 km
>= 3000ft
5 to 8 km
1000 to 3000 ft
1500m to 5 km
500 to 1000 ft
800 to 1500m
200 to 500 ft
< 800m
< 200 ft
Symbols :   Thunderstorms  Fog  Heavy snow  Heavy precipitations  Wind > 20 kt
SIGMETs :     Misc.  Thunderstorms  Icing  Turbulence  Mountain Waves  Volcanic Ashes






- Airport Elevation : 203 ft
- IATA code : XMJ


LFBM - Mont-De-Marsan

CURRENT METAR :
  • 280800Z AUTO 25008KT 9999 BKN029/// OVC037/// ///TCU 11/09 Q1017 TEMPO BKN007

EXPIRED METARs :
  • 280730Z AUTO 24005KT 9999 FEW022/// BKN028/// OVC034/// ///TCU 11/09 Q1017 TEMPO BKN007
  • 280700Z AUTO 25006KT 9999 FEW010/// BKN023/// OVC030/// ///TCU 10/09 Q1017 TEMPO BKN007
  • 280630Z AUTO 23005KT 200V260 9999 BKN024 BKN032 OVC043 11/09 Q1016 TEMPO BKN007
  • 280600Z AUTO 23006KT 190V250 9999 FEW029 OVC058 10/09 Q1015 TEMPO BKN007
  • 280530Z AUTO 24007KT 200V260 9999 FEW015 OVC056 10/09 Q1015 TEMPO BKN007

TAF TAF LFBM
Valid from the 28 at 03:00 until the 29 at 03:00 UTC


280200Z 2803/2903 24012KT 9999 BKN040
TEMPO 2803/2810 -RA BKN007
PROB30
TEMPO 2823/2903 BKN010



MET'MAP, your aeronautical weather chart ! - Copyright ORBIFLY December 2007 - Disclaimer

ORBIFLY MET'MAP TEAM :

Programming & Development : Alexandra Zaïnal
Concept & original design : Baudouin d'Aumeries
Assistance for programming : Marc-Olivier Méhu
Technical & hardware support : Manuel Goepfert

Contact : metmap@orbifly.com




SOURCES & CREDITS :

   NOAA